Portada
METAR-TAF:

METAR-TAF

Aeropuertos :

Aeropuerto de Kerry

Killarney, Irlanda

latitud: 52-10-51N, longitud: 9-31-26W, altitud: 34 m

Observación

El informe se hizo hace 4 horas y 27 minutos, a las 17:00 UTC
Viento 6 kt del oeste, variando entre suroeste y noroeste
Temperatura 15°C
Humedad 100%
Presión 1031 hPa
Visibilidad: 2500 m
Cielo cubierto a una altura de 900 ft
llovizna ligera

METAR: EIKY 211700Z 27006KT 230V310 2500 -DZ OVC009 15/15 Q1031

Hora: 22:27 (21:27 UTC)

Pronóstico

El informe se hizo hace 4 horas y 27 minutos, a las 17:00 UTC
Pronóstico válido del 21 a las 18 UTC al 22 a las 03 UTC
Viento 8 kt del suroeste
Visibilidad 10 km o más
Cielo nuboso a una altura de 2000 ft
Probabilidad 40% :
Temporalmente
del 21 a las 18 UTC al 22 a las 03 UTC
Visibilidad: 3000 m
Cielo nuboso a una altura de 600 ft
neblina

TAF: EIKY 211700Z 2118/2203 23008KT 9999 BKN020 PROB40 TEMPO 2118/2203 3000 BR BKN006

Observaciones y pronósticos meteorológicos de más de 4000 aeropuertos (mensajes METAR y TAF).

Los puntos amarillos y rojos representan las estaciones disponibles.

Ponga el ratón en el punto deseado para ver el nombre de la estación.

Haga clic para ver las observaciones y los pronósticos meteorológicos.

Para cambiar el mapa : haga clic en los botones verdes con una cruz de color negro para hacer un zoom, en el botón verde con un guión para alejar o en las flechas verdes para mapas adyacentes.


METAR-TAF: